Time;durP1;ratioP1;P1;durP2;ratioP2;P2;SDS_P1;SDS_P2;PMS_P1;PMS_P2;Temp;Humidity;BMP_temperature;BMP_pressure;BME280_temperature;BME280_humidity;BME280_pressure;Samples;Min_cycle;Max_cycle;Signal;HPM_P1;HPM_P2
2021/12/18 00:00:43;;;;;;;20.92;9.07;;;;;;;;;;5031973;28;43852;-88
2021/12/18 00:03:10;;;;;;;23.10;8.98;;;;;;;;;;5031154;28;42920;-87
2021/12/18 00:05:37;;;;;;;32.35;10.65;;;;;;;;;;5031201;28;43656;-88
2021/12/18 00:08:04;;;;;;;27.55;10.35;;;;;;;;;;5031501;28;44935;-87
2021/12/18 00:10:30;;;;;;;24.55;9.50;;;;;;;;;;5030615;28;42803;-87
2021/12/18 00:12:57;;;;;;;27.23;9.65;;;;;;;;;;5030875;28;44987;-87
2021/12/18 00:15:24;;;;;;;21.83;9.70;;;;;;;;;;5032041;28;43944;-87
2021/12/18 00:17:51;;;;;;;26.85;9.35;;;;;;;;;;5030635;28;43951;-87
2021/12/18 00:20:18;;;;;;;25.85;9.98;;;;;;;;;;5031505;28;43248;-87
2021/12/18 00:22:45;;;;;;;24.17;9.88;;;;;;;;;;5031061;28;42869;-87
2021/12/18 00:25:13;;;;;;;28.13;10.38;;;;;;;;;;5031597;28;44884;-87
2021/12/18 00:27:39;;;;;;;23.02;10.07;;;;;;;;;;5031307;28;43392;-87
2021/12/18 00:30:07;;;;;;;23.58;10.13;;;;;;;;;;5031879;28;42361;-87
2021/12/18 00:32:34;;;;;;;24.83;10.43;;;;;;;;;;5030575;28;44729;-88
2021/12/18 00:35:01;;;;;;;31.50;11.20;;;;;;;;;;5032799;28;26356;-87
2021/12/18 00:37:27;;;;;;;29.40;10.23;;;;;;;;;;5030873;28;43877;-88
2021/12/18 00:39:59;;;;;;;29.33;10.75;;;;;;;;;;5030908;28;43664;-87
2021/12/18 00:45:06;;;;;;;22.73;10.65;;;;;;;;;;5010967;28;44847;-87
2021/12/18 00:47:32;;;;;;;;;;;;;;;;;;5013279;28;45151;-88
2021/12/18 00:49:59;;;;;;;31.73;10.55;;;;;;;;;;5031537;28;44951;-87
2021/12/18 00:52:26;;;;;;;22.23;10.13;;;;;;;;;;5030409;28;44887;-87
2021/12/18 00:54:53;;;;;;;26.33;11.27;;;;;;;;;;5030610;28;44510;-87
2021/12/18 00:57:20;;;;;;;30.83;12.05;;;;;;;;;;5030410;28;43890;-87
2021/12/18 00:59:48;;;;;;;30.92;12.20;;;;;;;;;;5030803;28;43631;-87
2021/12/18 01:02:15;;;;;;;37.95;11.65;;;;;;;;;;5030184;28;42933;-87
2021/12/18 01:04:42;;;;;;;34.35;12.52;;;;;;;;;;5030863;28;43595;-88
2021/12/18 01:07:09;;;;;;;34.50;13.63;;;;;;;;;;5029599;28;43921;-87
2021/12/18 01:10:37;;;;;;;39.22;13.02;;;;;;;;;;5030182;28;44957;-87
2021/12/18 01:12:28;;;;;;;44.05;14.10;;;;;;;;;;5029113;28;45656;-87
2021/12/18 01:23:22;;;;;;;45.50;14.45;;;;;;;;;;5029644;28;43563;-87
2021/12/18 01:25:49;;;;;;;43.05;14.43;;;;;;;;;;5030864;28;42917;-87
2021/12/18 01:28:16;;;;;;;45.80;15.25;;;;;;;;;;5029889;28;43800;-87
2021/12/18 01:30:43;;;;;;;56.20;15.63;;;;;;;;;;5030578;28;35413;-87
2021/12/18 01:33:10;;;;;;;57.90;15.88;;;;;;;;;;5030137;28;42838;-87
2021/12/18 01:35:37;;;;;;;52.55;15.90;;;;;;;;;;5028924;28;44801;-87
2021/12/18 01:38:04;;;;;;;49.50;14.97;;;;;;;;;;5029432;28;44888;-87
2021/12/18 01:40:31;;;;;;;60.03;15.63;;;;;;;;;;5030727;28;43723;-87
2021/12/18 01:53:41;;;;;;;36.95;12.13;;;;;;;;;;5030346;28;43711;-87
2021/12/18 01:56:09;;;;;;;37.80;12.07;;;;;;;;;;5030073;28;44968;-86
2021/12/18 01:58:36;;;;;;;41.17;11.82;;;;;;;;;;5029357;28;40026;-87
2021/12/18 02:01:03;;;;;;;38.15;12.63;;;;;;;;;;5029526;28;45137;-86
2021/12/18 02:03:30;;;;;;;33.30;11.45;;;;;;;;;;5028464;28;44920;-87
2021/12/18 02:05:58;;;;;;;41.88;12.45;;;;;;;;;;5030481;28;43875;-87
2021/12/18 02:08:26;;;;;;;39.03;12.38;;;;;;;;;;5028947;28;43745;-87
2021/12/18 02:11:11;;;;;;;30.08;10.63;;;;;;;;;;5029341;28;43910;-87
2021/12/18 02:19:35;;;;;;;24.80;8.95;;;;;;;;;;5028946;28;44929;-86
2021/12/18 02:22:03;;;;;;;17.73;8.13;;;;;;;;;;5028997;28;44807;-87
2021/12/18 02:24:32;;;;;;;18.58;8.25;;;;;;;;;;5029185;28;43835;-88
2021/12/18 02:26:59;;;;;;;21.83;8.40;;;;;;;;;;5028560;28;45078;-86
2021/12/18 02:29:29;;;;;;;28.45;8.65;;;;;;;;;;5029944;28;45706;-87
2021/12/18 02:31:56;;;;;;;22.23;8.90;;;;;;;;;;5028463;28;42906;-87
2021/12/18 02:34:28;;;;;;;21.25;8.77;;;;;;;;;;5029483;28;43382;-87
2021/12/18 02:37:01;;;;;;;30.23;9.43;;;;;;;;;;5028745;28;43423;-86
2021/12/18 02:42:19;;;;;;;25.70;9.93;;;;;;;;;;5027578;28;45158;-87
2021/12/18 02:44:46;;;;;;;23.50;9.15;;;;;;;;;;5009670;28;44983;-87
2021/12/18 02:47:13;;;;;;;24.83;9.40;;;;;;;;;;5008358;28;42671;-87
2021/12/18 02:49:44;;;;;;;25.75;9.68;;;;;;;;;;5028875;28;45066;-87
2021/12/18 02:52:11;;;;;;;25.73;9.70;;;;;;;;;;5028166;28;46044;-86
2021/12/18 02:54:39;;;;;;;27.83;9.48;;;;;;;;;;5028788;28;42662;-87
2021/12/18 02:57:06;;;;;;;31.55;10.52;;;;;;;;;;5029275;28;43683;-86
2021/12/18 02:59:42;;;;;;;28.10;9.88;;;;;;;;;;5029092;28;44286;-86
2021/12/18 03:02:09;;;;;;;27.60;9.25;;;;;;;;;;5028451;28;44143;-86
2021/12/18 03:04:38;;;;;;;27.10;9.15;;;;;;;;;;5029239;28;43108;-87
2021/12/18 03:07:08;;;;;;;30.73;9.55;;;;;;;;;;5028042;28;45039;-87
2021/12/18 03:19:02;;;;;;;30.35;8.88;;;;;;;;;;5028953;28;44762;-87
2021/12/18 03:24:23;;;;;;;36.13;7.97;;;;;;;;;;5027587;28;43847;-87
2021/12/18 03:26:50;;;;;;;36.85;8.70;;;;;;;;;;5029815;28;44938;-87
2021/12/18 03:29:16;;;;;;;33.42;7.93;;;;;;;;;;5048820;28;42679;-88
2021/12/18 03:31:43;;;;;;;19.38;6.65;;;;;;;;;;5054494;28;44053;-89
2021/12/18 03:34:10;;;;;;;22.63;6.78;;;;;;;;;;5029727;28;42999;-87
2021/12/18 03:36:36;;;;;;;18.15;6.05;;;;;;;;;;5028561;28;44916;-87
2021/12/18 03:39:03;;;;;;;29.48;7.28;;;;;;;;;;5028887;28;42891;-87
2021/12/18 03:41:30;;;;;;;22.55;7.00;;;;;;;;;;5028415;28;43600;-87
2021/12/18 03:43:56;;;;;;;16.83;6.38;;;;;;;;;;5010917;28;43653;-87
2021/12/18 03:46:24;;;;;;;19.80;6.00;;;;;;;;;;5011380;28;45105;-87
2021/12/18 03:48:50;;;;;;;20.77;6.45;;;;;;;;;;5023731;28;43526;-87
2021/12/18 03:51:17;;;;;;;19.40;6.30;;;;;;;;;;5031527;28;42679;-86
2021/12/18 03:53:44;;;;;;;25.83;6.40;;;;;;;;;;5032028;28;45018;-87
2021/12/18 03:56:11;;;;;;;16.40;5.50;;;;;;;;;;5032314;28;20073;-87
2021/12/18 03:58:39;;;;;;;18.38;6.03;;;;;;;;;;5032088;28;43648;-86
2021/12/18 04:01:06;;;;;;;14.77;4.72;;;;;;;;;;5031672;28;45050;-87
2021/12/18 04:03:32;;;;;;;14.10;4.57;;;;;;;;;;5031385;28;44921;-87
2021/12/18 04:05:59;;;;;;;19.45;4.97;;;;;;;;;;5032627;28;37615;-87
2021/12/18 04:08:26;;;;;;;19.15;4.65;;;;;;;;;;5031088;28;44045;-88
2021/12/18 04:10:52;;;;;;;16.08;4.75;;;;;;;;;;5031207;28;46051;-87
2021/12/18 04:13:19;;;;;;;19.73;4.55;;;;;;;;;;5032000;28;43864;-88
2021/12/18 04:15:46;;;;;;;16.73;3.92;;;;;;;;;;5032177;28;43898;-87
2021/12/18 04:18:12;;;;;;;16.33;3.58;;;;;;;;;;5030626;28;42682;-87
2021/12/18 04:20:39;;;;;;;15.18;3.45;;;;;;;;;;5032179;28;42671;-87
2021/12/18 04:23:06;;;;;;;10.90;3.22;;;;;;;;;;5031333;28;42887;-87
2021/12/18 04:25:33;;;;;;;8.23;3.15;;;;;;;;;;5031487;28;43694;-87
2021/12/18 04:27:59;;;;;;;8.85;3.08;;;;;;;;;;5031028;28;43122;-87
2021/12/18 04:30:26;;;;;;;14.23;3.35;;;;;;;;;;5031429;28;43991;-86
2021/12/18 04:32:55;;;;;;;13.32;3.00;;;;;;;;;;5029768;28;44884;-87
2021/12/18 04:35:22;;;;;;;13.80;4.07;;;;;;;;;;5031474;28;45092;-87
2021/12/18 04:37:48;;;;;;;10.02;2.83;;;;;;;;;;5030976;28;43495;-87
2021/12/18 04:40:15;;;;;;;7.63;2.78;;;;;;;;;;5031294;28;45211;-87
2021/12/18 04:42:42;;;;;;;30.73;3.63;;;;;;;;;;5024422;28;20060;-87
2021/12/18 04:45:09;;;;;;;17.10;4.03;;;;;;;;;;5010964;28;43658;-87
2021/12/18 04:47:36;;;;;;;15.25;3.20;;;;;;;;;;5013351;28;43806;-88
2021/12/18 04:50:03;;;;;;;18.00;3.80;;;;;;;;;;5031206;28;42686;-87
2021/12/18 04:52:30;;;;;;;13.20;3.40;;;;;;;;;;5029986;28;45131;-87
2021/12/18 04:54:56;;;;;;;11.52;3.60;;;;;;;;;;5031305;28;42998;-86
2021/12/18 04:57:23;;;;;;;12.98;3.70;;;;;;;;;;5029434;28;42622;-86
2021/12/18 04:59:50;;;;;;;11.15;2.72;;;;;;;;;;5030152;28;43696;-86
2021/12/18 05:02:20;;;;;;;11.85;3.03;;;;;;;;;;5030894;28;42784;-86
2021/12/18 05:04:47;;;;;;;10.35;2.85;;;;;;;;;;5031021;28;44761;-87
2021/12/18 05:07:13;;;;;;;11.38;2.95;;;;;;;;;;5029987;28;44906;-87
2021/12/18 05:09:41;;;;;;;17.65;3.08;;;;;;;;;;5031510;28;37001;-87
2021/12/18 05:12:09;;;;;;;13.33;3.20;;;;;;;;;;5030536;28;44121;-86
2021/12/18 05:14:36;;;;;;;15.13;3.53;;;;;;;;;;5030079;28;45090;-87
2021/12/18 05:17:02;;;;;;;12.88;3.13;;;;;;;;;;5029899;28;42337;-87
2021/12/18 05:19:29;;;;;;;14.35;3.33;;;;;;;;;;5030626;28;42928;-87
2021/12/18 05:21:56;;;;;;;11.68;3.67;;;;;;;;;;5028472;28;42945;-86
2021/12/18 05:24:22;;;;;;;14.05;3.60;;;;;;;;;;5030412;28;45614;-86
2021/12/18 05:26:49;;;;;;;18.83;3.90;;;;;;;;;;5030305;28;44884;-87
2021/12/18 05:29:15;;;;;;;20.77;4.07;;;;;;;;;;5028497;28;44969;-87
2021/12/18 05:31:43;;;;;;;28.98;3.70;;;;;;;;;;5029517;28;43762;-86
2021/12/18 05:34:10;;;;;;;23.13;4.00;;;;;;;;;;5030151;28;45016;-87
2021/12/18 05:37:11;;;;;;;25.75;3.95;;;;;;;;;;5029624;28;45070;-87
2021/12/18 05:39:24;;;;;;;11.45;3.58;;;;;;;;;;5030162;28;44927;-87
2021/12/18 05:41:51;;;;;;;14.52;4.00;;;;;;;;;;5026845;28;42923;-88
2021/12/18 05:44:19;;;;;;;26.95;4.28;;;;;;;;;;5028445;28;43706;-88
2021/12/18 05:46:46;;;;;;;23.35;2.60;;;;;;;;;;5027065;28;45909;-87
2021/12/18 05:49:13;;;;;;;18.80;2.50;;;;;;;;;;5028172;28;45346;-88
2021/12/18 05:51:42;;;;;;;17.42;2.28;;;;;;;;;;5031278;28;20535;-87
2021/12/18 05:54:09;;;;;;;9.48;1.85;;;;;;;;;;5030411;28;44609;-88
2021/12/18 05:56:36;;;;;;;20.05;2.80;;;;;;;;;;5029242;28;44626;-88
2021/12/18 05:59:03;;;;;;;10.52;2.10;;;;;;;;;;5030481;28;44926;-87
2021/12/18 06:01:30;;;;;;;6.53;1.88;;;;;;;;;;5029358;28;42870;-88
2021/12/18 06:03:56;;;;;;;32.15;1.90;;;;;;;;;;5029449;28;43523;-87
2021/12/18 06:06:25;;;;;;;11.53;1.70;;;;;;;;;;5030106;28;45013;-88
2021/12/18 06:08:52;;;;;;;6.50;1.30;;;;;;;;;;5029213;28;44019;-88
2021/12/18 06:11:20;;;;;;;8.10;1.48;;;;;;;;;;5027923;28;43626;-88
2021/12/18 06:13:48;;;;;;;4.75;1.40;;;;;;;;;;5030512;28;44910;-87
2021/12/18 06:16:15;;;;;;;5.97;1.45;;;;;;;;;;5029870;28;44729;-87
2021/12/18 06:18:47;;;;;;;18.00;1.35;;;;;;;;;;5029377;28;44921;-87
2021/12/18 06:21:14;;;;;;;8.40;1.20;;;;;;;;;;5029892;28;45013;-88
2021/12/18 06:23:41;;;;;;;7.25;1.30;;;;;;;;;;5029342;28;43025;-87
2021/12/18 06:26:08;;;;;;;3.17;1.38;;;;;;;;;;5029707;28;43872;-87
2021/12/18 06:28:35;;;;;;;17.33;1.40;;;;;;;;;;5029836;28;44117;-87
2021/12/18 06:31:21;;;;;;;2.28;1.48;;;;;;;;;;5028988;28;44772;-87
2021/12/18 06:33:48;;;;;;;21.08;1.70;;;;;;;;;;5030111;28;44297;-87
2021/12/18 06:36:15;;;;;;;4.32;1.27;;;;;;;;;;5029243;28;42913;-86
2021/12/18 06:38:42;;;;;;;1.20;1.10;;;;;;;;;;5029310;28;43851;-87
2021/12/18 06:41:08;;;;;;;6.80;1.20;;;;;;;;;;5030392;28;42929;-87
2021/12/18 06:43:35;;;;;;;1.38;1.10;;;;;;;;;;5015582;28;43642;-87
2021/12/18 06:46:02;;;;;;;2.95;1.10;;;;;;;;;;5010453;28;20895;-86
2021/12/18 06:48:28;;;;;;;6.88;1.25;;;;;;;;;;5018078;28;44853;-87
2021/12/18 06:50:55;;;;;;;3.15;1.15;;;;;;;;;;5029713;28;43616;-87
2021/12/18 06:53:22;;;;;;;5.05;1.38;;;;;;;;;;5028649;28;44015;-87
2021/12/18 06:55:48;;;;;;;13.77;1.40;;;;;;;;;;5029497;28;42865;-87
2021/12/18 06:58:20;;;;;;;7.80;1.50;;;;;;;;;;5028883;28;44216;-87
2021/12/18 07:00:47;;;;;;;10.77;1.40;;;;;;;;;;5028061;28;42876;-87
2021/12/18 07:03:14;;;;;;;6.63;1.63;;;;;;;;;;5028472;28;45706;-86
2021/12/18 07:05:41;;;;;;;5.03;1.55;;;;;;;;;;5029757;28;44364;-87
2021/12/18 07:08:08;;;;;;;3.88;1.58;;;;;;;;;;5029880;28;44916;-88
2021/12/18 07:10:35;;;;;;;1.60;1.02;;;;;;;;;;5050243;28;42626;-88
2021/12/18 07:13:02;;;;;;;1.53;1.40;;;;;;;;;;5053936;28;43888;-90
2021/12/18 07:15:29;;;;;;;1.80;1.23;;;;;;;;;;5029668;28;45185;-87
2021/12/18 07:17:55;;;;;;;4.45;1.40;;;;;;;;;;5029536;28;44730;-87
2021/12/18 07:20:22;;;;;;;9.68;1.20;;;;;;;;;;5031247;28;42806;-87
2021/12/18 07:22:49;;;;;;;1.35;0.90;;;;;;;;;;5032142;28;42459;-86
2021/12/18 07:25:15;;;;;;;2.25;1.23;;;;;;;;;;5032427;28;42567;-88
2021/12/18 07:27:43;;;;;;;3.15;1.23;;;;;;;;;;5030937;28;44938;-86
2021/12/18 07:30:10;;;;;;;2.05;1.40;;;;;;;;;;5032506;28;43645;-87
2021/12/18 07:32:38;;;;;;;2.13;1.38;;;;;;;;;;5032415;28;41482;-86
2021/12/18 07:35:05;;;;;;;7.53;1.90;;;;;;;;;;5031745;28;43904;-86
2021/12/18 07:37:32;;;;;;;5.88;1.42;;;;;;;;;;5029229;28;44656;-86
2021/12/18 07:39:58;;;;;;;4.88;1.30;;;;;;;;;;5032210;28;44021;-86
2021/12/18 07:42:25;;;;;;;16.05;1.50;;;;;;;;;;5029966;28;44946;-86
2021/12/18 07:44:52;;;;;;;2.97;1.30;;;;;;;;;;5030594;28;45006;-86
2021/12/18 07:47:19;;;;;;;6.40;1.55;;;;;;;;;;5028921;28;43188;-86
2021/12/18 07:49:46;;;;;;;4.47;2.15;;;;;;;;;;5008343;28;43321;-87
2021/12/18 07:52:13;;;;;;;8.55;1.73;;;;;;;;;;5010480;28;42968;-89
2021/12/18 07:54:40;;;;;;;10.88;1.20;;;;;;;;;;5011917;28;42896;-85
2021/12/18 07:57:08;;;;;;;5.95;1.02;;;;;;;;;;5011877;28;43958;-89
2021/12/18 07:59:34;;;;;;;2.25;1.25;;;;;;;;;;5018906;28;44533;-93
2021/12/18 08:02:05;;;;;;;2.28;1.10;;;;;;;;;;5032746;28;20492;-89
2021/12/18 08:04:34;;;;;;;4.83;1.80;;;;;;;;;;5032379;28;45034;-93
2021/12/18 08:07:02;;;;;;;3.75;2.00;;;;;;;;;;5033271;28;43842;-87
2021/12/18 08:09:29;;;;;;;17.13;2.17;;;;;;;;;;5031339;28;42901;-88
2021/12/18 08:11:56;;;;;;;14.02;3.50;;;;;;;;;;5031917;28;42934;-87
2021/12/18 08:14:23;;;;;;;5.22;2.60;;;;;;;;;;5030675;28;44056;-88
2021/12/18 08:16:50;;;;;;;7.65;1.85;;;;;;;;;;5030295;28;43582;-89
2021/12/18 08:19:17;;;;;;;4.70;1.70;;;;;;;;;;5032751;28;43885;-90
2021/12/18 08:21:44;;;;;;;5.10;2.28;;;;;;;;;;5031472;28;20512;-87
2021/12/18 08:24:11;;;;;;;9.70;2.10;;;;;;;;;;5029740;28;44665;-88
2021/12/18 08:26:38;;;;;;;3.25;1.92;;;;;;;;;;5029494;28;45309;-87
2021/12/18 08:29:04;;;;;;;11.57;2.47;;;;;;;;;;5030297;28;42625;-87
2021/12/18 08:31:31;;;;;;;17.90;3.70;;;;;;;;;;5025683;28;44954;-87
2021/12/18 08:33:58;;;;;;;10.93;3.67;;;;;;;;;;5029918;28;44025;-87
2021/12/18 08:36:25;;;;;;;14.68;2.85;;;;;;;;;;5029787;28;44046;-87
2021/12/18 08:38:52;;;;;;;8.13;2.88;;;;;;;;;;4987166;27;43848;-87
2021/12/18 08:41:19;;;;;;;11.40;2.05;;;;;;;;;;5001055;28;42360;-86
2021/12/18 08:43:46;;;;;;;19.90;2.63;;;;;;;;;;5058813;28;44016;-87
2021/12/18 08:46:13;;;;;;;17.08;2.50;;;;;;;;;;5049154;28;43874;-85
2021/12/18 08:48:40;;;;;;;11.35;2.50;;;;;;;;;;5049801;28;43634;-87
2021/12/18 08:51:07;;;;;;;4.72;2.35;;;;;;;;;;5051030;28;45056;-92
2021/12/18 08:53:34;;;;;;;8.25;2.33;;;;;;;;;;5050184;28;44277;-87
2021/12/18 08:56:00;;;;;;;5.82;1.77;;;;;;;;;;5052913;28;45046;-87
2021/12/18 08:58:27;;;;;;;3.28;1.70;;;;;;;;;;5049612;28;44997;-88
2021/12/18 09:00:53;;;;;;;4.65;1.60;;;;;;;;;;5050672;28;44979;-86
2021/12/18 09:03:20;;;;;;;2.50;1.63;;;;;;;;;;5049460;28;43679;-85
2021/12/18 09:05:48;;;;;;;2.35;1.42;;;;;;;;;;5050186;28;45028;-86
2021/12/18 09:08:15;;;;;;;2.63;1.33;;;;;;;;;;5050238;28;41666;-87
2021/12/18 09:10:42;;;;;;;3.38;1.95;;;;;;;;;;5049317;28;43638;-89
2021/12/18 09:13:09;;;;;;;6.18;1.90;;;;;;;;;;5049152;28;44871;-89
2021/12/18 09:15:36;;;;;;;3.17;1.98;;;;;;;;;;5050692;28;43596;-88
2021/12/18 09:18:03;;;;;;;6.97;1.85;;;;;;;;;;5049663;28;44745;-88
2021/12/18 09:20:31;;;;;;;3.85;1.65;;;;;;;;;;5049796;28;43542;-88
2021/12/18 09:23:00;;;;;;;4.97;2.10;;;;;;;;;;5050305;28;43718;-89
2021/12/18 09:25:27;;;;;;;5.53;2.20;;;;;;;;;;5049675;28;44903;-88
2021/12/18 09:27:56;;;;;;;3.05;1.70;;;;;;;;;;5048445;28;42772;-88
2021/12/18 09:30:23;;;;;;;12.52;2.42;;;;;;;;;;5050652;28;43943;-87
2021/12/18 09:32:50;;;;;;;6.28;2.53;;;;;;;;;;5049726;28;42857;-86
2021/12/18 09:35:18;;;;;;;8.38;5.65;;;;;;;;;;5049838;28;42671;-86
2021/12/18 09:37:47;;;;;;;8.35;4.38;;;;;;;;;;5049836;28;45013;-87
2021/12/18 09:40:17;;;;;;;3.95;2.53;;;;;;;;;;5050257;28;42853;-86
2021/12/18 09:42:44;;;;;;;5.13;2.92;;;;;;;;;;5047067;28;43921;-88
2021/12/18 09:45:11;;;;;;;7.07;3.00;;;;;;;;;;5048402;28;43867;-87
2021/12/18 09:47:38;;;;;;;5.13;2.60;;;;;;;;;;5049352;28;20046;-88
2021/12/18 09:50:09;;;;;;;6.10;3.30;;;;;;;;;;5050250;28;43602;-90
2021/12/18 09:52:36;;;;;;;5.65;2.53;;;;;;;;;;5048326;28;42867;-88
2021/12/18 09:55:03;;;;;;;4.00;2.55;;;;;;;;;;5047702;28;45841;-87
2021/12/18 09:57:30;;;;;;;4.53;2.47;;;;;;;;;;5049078;28;45019;-87
2021/12/18 09:59:57;;;;;;;3.83;2.65;;;;;;;;;;5049507;28;44984;-88
2021/12/18 10:02:24;;;;;;;8.47;4.30;;;;;;;;;;5046680;28;42452;-88
2021/12/18 10:04:51;;;;;;;8.30;3.05;;;;;;;;;;5047923;28;45072;-88
2021/12/18 10:07:19;;;;;;;13.43;3.20;;;;;;;;;;5048103;28;43792;-88
2021/12/18 10:09:47;;;;;;;3.42;2.33;;;;;;;;;;5047732;28;42909;-86
2021/12/18 10:12:17;;;;;;;14.32;3.05;;;;;;;;;;5049850;28;20566;-87
2021/12/18 10:14:49;;;;;;;4.47;2.70;;;;;;;;;;5048143;28;42730;-85
2021/12/18 10:17:30;;;;;;;5.57;2.80;;;;;;;;;;5043048;28;45906;-85
2021/12/18 10:20:16;;;;;;;4.25;2.53;;;;;;;;;;5046322;28;42839;-86
2021/12/18 10:22:52;;;;;;;26.85;2.47;;;;;;;;;;5046089;28;43174;-86
2021/12/18 10:25:21;;;;;;;7.63;2.60;;;;;;;;;;5065108;28;41424;-85
2021/12/18 10:28:09;;;;;;;12.13;2.70;;;;;;;;;;5067304;28;44906;-86
2021/12/18 10:30:43;;;;;;;16.30;2.92;;;;;;;;;;5068022;28;42659;-85
2021/12/18 10:33:11;;;;;;;11.60;3.13;;;;;;;;;;5067483;28;44953;-85
2021/12/18 10:35:51;;;;;;;11.25;3.30;;;;;;;;;;5066529;28;43785;-85
2021/12/18 10:38:39;;;;;;;23.42;3.58;;;;;;;;;;5046675;28;42417;-86
2021/12/18 10:41:06;;;;;;;;;;;;;;;;;;5049341;28;45056;-85
2021/12/18 10:43:51;;;;;;;15.77;4.07;;;;;;;;;;5044448;28;44754;-86
2021/12/18 10:46:19;;;;;;;16.63;5.38;;;;;;;;;;5047306;28;42866;-86
2021/12/18 10:49:00;;;;;;;23.93;4.40;;;;;;;;;;5049246;28;45042;-86
2021/12/18 10:51:27;;;;;;;11.38;3.67;;;;;;;;;;5072359;28;43377;-85
2021/12/18 10:54:04;;;;;;;12.17;4.00;;;;;;;;;;5066993;28;43944;-85
2021/12/18 10:56:32;;;;;;;9.68;3.63;;;;;;;;;;5045799;28;42834;-85
2021/12/18 10:59:01;;;;;;;6.53;3.22;;;;;;;;;;5042731;28;43196;-85
2021/12/18 11:01:29;;;;;;;6.65;3.42;;;;;;;;;;5040740;28;43557;-85
2021/12/18 11:03:55;;;;;;;6.20;3.20;;;;;;;;;;5039207;28;43642;-85
2021/12/18 11:06:25;;;;;;;4.72;2.72;;;;;;;;;;5035290;28;43911;-84
2021/12/18 11:08:54;;;;;;;3.80;2.85;;;;;;;;;;5037637;28;44965;-83
2021/12/18 11:14:05;;;;;;;5.90;3.20;;;;;;;;;;5039060;28;43036;-85
2021/12/18 11:16:36;;;;;;;;;;;;;;;;;;5038319;28;45481;-85
2021/12/18 11:19:04;;;;;;;4.20;2.97;;;;;;;;;;5038681;28;43346;-85
2021/12/18 11:21:31;;;;;;;4.28;2.65;;;;;;;;;;5040094;28;45058;-84
2021/12/18 11:24:04;;;;;;;3.13;2.70;;;;;;;;;;5040091;28;44816;-85
2021/12/18 11:26:43;;;;;;;2.50;2.20;;;;;;;;;;5039187;28;42122;-85
2021/12/18 11:29:14;;;;;;;3.88;2.65;;;;;;;;;;5039701;28;44170;-85
2021/12/18 11:31:41;;;;;;;2.42;2.22;;;;;;;;;;5039550;28;43653;-85
2021/12/18 11:34:08;;;;;;;2.17;1.98;;;;;;;;;;5039296;28;46174;-85
2021/12/18 11:36:38;;;;;;;3.60;2.22;;;;;;;;;;5039739;28;42879;-85
2021/12/18 11:39:05;;;;;;;5.22;2.10;;;;;;;;;;5039517;28;45220;-87
2021/12/18 11:41:32;;;;;;;3.25;1.98;;;;;;;;;;5039059;28;43464;-85
2021/12/18 11:43:58;;;;;;;3.83;2.38;;;;;;;;;;5039744;28;43155;-88
2021/12/18 11:46:46;;;;;;;3.47;2.40;;;;;;;;;;5039254;28;45095;-89
2021/12/18 11:49:16;;;;;;;4.43;2.08;;;;;;;;;;5039728;28;20977;-86
2021/12/18 11:51:56;;;;;;;2.58;1.92;;;;;;;;;;5039907;28;20484;-85
2021/12/18 11:54:41;;;;;;;4.20;3.40;;;;;;;;;;5038592;28;45087;-85
2021/12/18 11:57:08;;;;;;;1.42;1.33;;;;;;;;;;5032526;28;45059;-86
2021/12/18 11:59:39;;;;;;;2.13;1.80;;;;;;;;;;5035544;28;43952;-84
2021/12/18 12:02:07;;;;;;;2.38;1.80;;;;;;;;;;5047957;28;44992;-84
2021/12/18 12:05:09;;;;;;;2.00;1.60;;;;;;;;;;5050330;28;43171;-85
2021/12/18 12:07:37;;;;;;;1.75;1.65;;;;;;;;;;5024795;28;43862;-85
2021/12/18 12:10:05;;;;;;;;;;;;;;;;;;5001648;27;43796;-84
2021/12/18 12:12:48;;;;;;;4.68;2.10;;;;;;;;;;5076099;28;43405;-84
2021/12/18 12:15:16;;;;;;;2.97;2.30;;;;;;;;;;5041674;28;42930;-84
2021/12/18 12:17:54;;;;;;;3.50;2.20;;;;;;;;;;5039103;28;44922;-84
2021/12/18 12:20:36;;;;;;;2.35;2.13;;;;;;;;;;5040547;28;42662;-84
2021/12/18 12:23:03;;;;;;;3.53;2.30;;;;;;;;;;5037416;28;43103;-84
2021/12/18 12:25:32;;;;;;;3.83;2.80;;;;;;;;;;5037306;28;42098;-85
2021/12/18 12:28:01;;;;;;;4.57;2.65;;;;;;;;;;5038325;28;43704;-84
2021/12/18 12:30:30;;;;;;;5.15;2.97;;;;;;;;;;5038153;28;43031;-85
2021/12/18 12:32:58;;;;;;;4.13;2.60;;;;;;;;;;5036507;28;43831;-85
2021/12/18 12:35:25;;;;;;;6.68;3.28;;;;;;;;;;5040036;28;43898;-85
2021/12/18 12:37:52;;;;;;;4.60;3.35;;;;;;;;;;5036874;28;42634;-85
2021/12/18 12:40:31;;;;;;;4.10;3.28;;;;;;;;;;5038432;28;43529;-85
2021/12/18 12:43:15;;;;;;;4.45;3.38;;;;;;;;;;5038259;28;42906;-85
2021/12/18 12:45:44;;;;;;;3.65;3.00;;;;;;;;;;5037429;28;42435;-84
2021/12/18 12:48:11;;;;;;;5.28;3.20;;;;;;;;;;5038614;28;42615;-84
2021/12/18 12:50:38;;;;;;;5.22;3.25;;;;;;;;;;5037063;28;46030;-84
2021/12/18 12:53:09;;;;;;;5.43;3.55;;;;;;;;;;5032677;28;43082;-84
2021/12/18 12:55:48;;;;;;;8.15;3.30;;;;;;;;;;5028123;28;45246;-84
2021/12/18 12:58:17;;;;;;;3.47;2.85;;;;;;;;;;5028284;28;44868;-84
2021/12/18 13:00:45;;;;;;;4.82;3.33;;;;;;;;;;5044625;28;42661;-83
2021/12/18 13:03:14;;;;;;;5.95;3.45;;;;;;;;;;5048786;28;45292;-84
2021/12/18 13:05:46;;;;;;;4.00;3.08;;;;;;;;;;5048480;28;44989;-84
2021/12/18 13:08:12;;;;;;;3.38;2.90;;;;;;;;;;5048784;28;42641;-85
2021/12/18 13:10:41;;;;;;;3.50;2.63;;;;;;;;;;5049117;28;41866;-84
2021/12/18 13:13:09;;;;;;;7.15;2.50;;;;;;;;;;5048198;28;44944;-84
2021/12/18 13:15:35;;;;;;;;;;;;;;;;;;5050706;28;46041;-84
2021/12/18 13:18:05;;;;;;;2.60;2.40;;;;;;;;;;5047952;28;44949;-84
2021/12/18 13:20:44;;;;;;;6.13;2.83;;;;;;;;;;5048889;28;44496;-85
2021/12/18 13:23:17;;;;;;;3.97;2.67;;;;;;;;;;5048975;28;42909;-85
2021/12/18 13:25:52;;;;;;;5.68;3.10;;;;;;;;;;5048445;28;42017;-84
2021/12/18 13:28:19;;;;;;;5.00;3.30;;;;;;;;;;5048722;28;43645;-85
2021/12/18 13:30:48;;;;;;;3.88;2.78;;;;;;;;;;5048472;28;43890;-84
2021/12/18 13:33:14;;;;;;;;;;;;;;;;;;5048913;28;43970;-85
2021/12/18 13:35:41;;;;;;;6.00;2.80;;;;;;;;;;5040493;28;44732;-85
2021/12/18 13:38:12;;;;;;;6.35;2.90;;;;;;;;;;5043400;28;42357;-85
2021/12/18 13:40:46;;;;;;;2.72;2.30;;;;;;;;;;5039063;28;44757;-85
2021/12/18 13:43:14;;;;;;;6.38;3.40;;;;;;;;;;5036745;28;45450;-85
2021/12/18 13:45:57;;;;;;;3.92;2.92;;;;;;;;;;5028107;28;43163;-85
2021/12/18 13:48:26;;;;;;;5.85;3.20;;;;;;;;;;5043397;28;43654;-85
2021/12/18 13:50:54;;;;;;;3.80;3.17;;;;;;;;;;5042866;28;44922;-85
2021/12/18 13:53:21;;;;;;;6.05;2.75;;;;;;;;;;5043334;28;44038;-85
2021/12/18 13:55:51;;;;;;;7.20;3.50;;;;;;;;;;5043956;28;43953;-85
2021/12/18 13:58:22;;;;;;;8.60;3.30;;;;;;;;;;5044136;28;44850;-85
2021/12/18 14:00:58;;;;;;;4.85;3.67;;;;;;;;;;5028961;28;42474;-85
2021/12/18 14:03:28;;;;;;;7.05;3.97;;;;;;;;;;5044182;28;45468;-85
2021/12/18 14:05:57;;;;;;;9.50;4.43;;;;;;;;;;5042349;28;43368;-86
2021/12/18 14:08:25;;;;;;;7.15;3.65;;;;;;;;;;5027334;28;45631;-85
2021/12/18 14:10:52;;;;;;;4.57;3.60;;;;;;;;;;5043275;28;45374;-85
2021/12/18 14:13:19;;;;;;;5.43;3.65;;;;;;;;;;5044749;28;44939;-85
2021/12/18 14:15:46;;;;;;;5.57;3.95;;;;;;;;;;5044618;28;42686;-84
2021/12/18 14:18:32;;;;;;;5.38;3.72;;;;;;;;;;5036442;28;42382;-85
2021/12/18 14:20:59;;;;;;;6.35;4.07;;;;;;;;;;5029237;28;43288;-85
2021/12/18 14:23:36;;;;;;;8.73;4.10;;;;;;;;;;5026093;28;44280;-85
2021/12/18 14:26:20;;;;;;;4.47;3.58;;;;;;;;;;5044834;28;42888;-84
2021/12/18 14:28:48;;;;;;;5.53;3.20;;;;;;;;;;5033786;28;42800;-85
2021/12/18 14:31:15;;;;;;;;;;;;;;;;;;5063649;28;44086;-83
2021/12/18 14:33:55;;;;;;;3.10;2.00;;;;;;;;;;5052979;28;43951;-85
2021/12/18 14:36:42;;;;;;;1.73;1.58;;;;;;;;;;5033287;28;44691;-85
2021/12/18 14:39:29;;;;;;;1.63;1.50;;;;;;;;;;5038545;28;44914;-84
2021/12/18 14:41:58;;;;;;;2.35;1.70;;;;;;;;;;5043626;28;44339;-85
2021/12/18 14:44:26;;;;;;;2.33;1.63;;;;;;;;;;5037336;28;44928;-85
2021/12/18 14:47:09;;;;;;;4.55;1.90;;;;;;;;;;5041758;28;45127;-86
2021/12/18 14:49:56;;;;;;;2.05;1.67;;;;;;;;;;5048447;28;42410;-91
2021/12/18 14:52:22;;;;;;;1.63;1.35;;;;;;;;;;5040095;28;45100;-91
2021/12/18 14:54:51;;;;;;;2.88;1.45;;;;;;;;;;5029837;28;45108;-89
2021/12/18 14:57:22;;;;;;;3.45;1.52;;;;;;;;;;5040795;28;43454;-88
2021/12/18 15:00:09;;;;;;;2.67;1.48;;;;;;;;;;5045604;28;42459;-85
2021/12/18 15:02:54;;;;;;;3.33;1.38;;;;;;;;;;5046804;28;43883;-84
2021/12/18 15:05:21;;;;;;;3.40;1.65;;;;;;;;;;5046662;28;20060;-85
2021/12/18 15:07:55;;;;;;;1.98;1.65;;;;;;;;;;5046425;28;43952;-86
2021/12/18 15:10:22;;;;;;;2.53;1.80;;;;;;;;;;5039067;28;44672;-85
2021/12/18 15:12:49;;;;;;;2.42;2.00;;;;;;;;;;5038081;28;42923;-85
2021/12/18 15:15:15;;;;;;;2.83;2.03;;;;;;;;;;5034025;28;45130;-84
2021/12/18 15:17:42;;;;;;;4.32;2.42;;;;;;;;;;5039157;28;44018;-85
2021/12/18 15:20:09;;;;;;;3.88;2.40;;;;;;;;;;5039383;28;43719;-86
2021/12/18 15:22:36;;;;;;;2.78;2.20;;;;;;;;;;5029677;28;42644;-86
2021/12/18 15:25:03;;;;;;;4.72;2.33;;;;;;;;;;5038640;28;44582;-85
2021/12/18 15:27:29;;;;;;;4.80;2.53;;;;;;;;;;5038598;28;43012;-86
2021/12/18 15:29:56;;;;;;;4.47;2.67;;;;;;;;;;5037313;28;45003;-85
2021/12/18 15:32:23;;;;;;;4.13;2.80;;;;;;;;;;5037843;28;44993;-85
2021/12/18 15:34:50;;;;;;;7.30;2.70;;;;;;;;;;5038206;28;44000;-85